Time;durP1;ratioP1;P1;durP2;ratioP2;P2;SDS_P1;SDS_P2;PMS_P1;PMS_P2;Temp;Humidity;BMP_temperature;BMP_pressure;BME280_temperature;BME280_humidity;BME280_pressure;Samples;Min_cycle;Max_cycle;Signal;HPM_P1;HPM_P2
2024/01/15 00:00:39;;;;;;;53.27;22.73;;;-3.00;99.90;;;;;;4145963;28;20279;-56
2024/01/15 00:02:40;;;;;;;39.63;18.60;;;-3.00;99.90;;;;;;4145938;28;20271;-57
2024/01/15 00:04:42;;;;;;;39.73;19.50;;;-3.00;99.90;;;;;;4145917;28;20837;-53
2024/01/15 00:06:43;;;;;;;50.63;22.53;;;-3.00;99.90;;;;;;4145923;28;20283;-56
2024/01/15 00:08:44;;;;;;;49.07;21.33;;;-3.00;99.90;;;;;;4145369;28;20341;-56
2024/01/15 00:10:45;;;;;;;56.43;26.17;;;-3.00;99.90;;;;;;4145460;28;20294;-53
2024/01/15 00:12:46;;;;;;;58.40;25.37;;;-3.10;99.90;;;;;;4145382;28;20402;-59
2024/01/15 00:14:48;;;;;;;57.00;26.23;;;-3.10;99.90;;;;;;4145261;28;20271;-52
2024/01/15 00:16:51;;;;;;;52.63;24.13;;;-3.10;99.90;;;;;;4145666;28;20264;-55
2024/01/15 00:18:52;;;;;;;52.70;24.23;;;-3.10;99.90;;;;;;4146166;28;20279;-53
2024/01/15 00:20:53;;;;;;;55.03;25.27;;;-3.10;99.90;;;;;;4145549;28;20264;-52
2024/01/15 00:22:54;;;;;;;56.07;25.87;;;-3.10;99.90;;;;;;4145440;28;20822;-54
2024/01/15 00:24:56;;;;;;;50.80;22.67;;;-3.10;99.90;;;;;;4145267;28;20735;-54
2024/01/15 00:26:57;;;;;;;64.60;27.33;;;-3.10;99.90;;;;;;4145059;28;20287;-54
2024/01/15 00:28:58;;;;;;;65.93;28.73;;;-3.10;99.90;;;;;;4145058;28;20357;-54
2024/01/15 00:30:59;;;;;;;80.47;36.57;;;-3.10;99.90;;;;;;4145259;28;20291;-49
2024/01/15 00:33:00;;;;;;;75.40;34.13;;;-3.10;99.90;;;;;;4145292;28;20267;-51
2024/01/15 00:35:03;;;;;;;77.07;31.63;;;-3.10;99.90;;;;;;4145253;28;20283;-56
2024/01/15 00:37:06;;;;;;;68.23;30.50;;;-3.10;99.90;;;;;;4144588;28;20679;-56
2024/01/15 00:39:07;;;;;;;66.80;30.33;;;-3.10;99.90;;;;;;4144988;28;20271;-57
2024/01/15 00:41:09;;;;;;;56.20;25.67;;;-3.10;99.90;;;;;;4144576;28;21062;-54
2024/01/15 00:43:10;;;;;;;67.17;28.43;;;-3.20;99.90;;;;;;4145017;28;20264;-49
2024/01/15 00:45:11;;;;;;;63.63;27.20;;;-3.20;99.90;;;;;;4145097;28;21246;-51
2024/01/15 00:47:12;;;;;;;62.10;26.40;;;-3.20;99.90;;;;;;4144852;28;20283;-55
2024/01/15 00:49:14;;;;;;;61.93;26.07;;;-3.20;99.90;;;;;;4145215;28;20910;-53
2024/01/15 00:51:15;;;;;;;57.83;25.63;;;-3.20;99.90;;;;;;4144390;28;20295;-53
2024/01/15 00:53:16;;;;;;;61.30;26.77;;;-3.30;99.90;;;;;;4128989;28;20264;-55
2024/01/15 00:55:17;;;;;;;56.00;26.03;;;-3.30;99.90;;;;;;4144051;28;20633;-53
2024/01/15 00:57:19;;;;;;;57.07;25.13;;;-3.40;99.90;;;;;;4144730;28;20310;-52
2024/01/15 00:59:20;;;;;;;58.13;24.70;;;-3.40;99.90;;;;;;4144971;28;20275;-55
2024/01/15 01:01:21;;;;;;;42.17;19.20;;;-3.40;99.90;;;;;;4145182;28;20756;-55
2024/01/15 01:03:22;;;;;;;39.77;16.47;;;-3.50;99.90;;;;;;4144501;28;20263;-54
2024/01/15 01:05:24;;;;;;;38.47;16.07;;;-3.50;99.90;;;;;;4144823;28;20259;-56
2024/01/15 01:07:25;;;;;;;37.90;17.93;;;-3.60;99.90;;;;;;4144787;28;20382;-52
2024/01/15 01:09:29;;;;;;;42.73;18.90;;;-3.60;99.90;;;;;;4144748;28;20679;-53
2024/01/15 01:11:31;;;;;;;40.30;17.93;;;-3.60;99.90;;;;;;4144647;28;20284;-53
2024/01/15 01:13:32;;;;;;;45.20;18.83;;;-3.60;99.90;;;;;;4144636;28;20325;-54
2024/01/15 01:15:33;;;;;;;43.97;19.03;;;-3.70;99.90;;;;;;4144792;28;20326;-53
2024/01/15 01:17:34;;;;;;;45.63;19.17;;;-3.70;99.90;;;;;;4144753;28;20779;-53
2024/01/15 01:19:35;;;;;;;48.10;20.43;;;-3.70;99.90;;;;;;4145260;28;20632;-55
2024/01/15 01:21:37;;;;;;;42.77;20.47;;;-3.70;99.90;;;;;;4144827;28;20338;-53
2024/01/15 01:23:38;;;;;;;47.93;20.83;;;-3.70;99.90;;;;;;4144124;28;20256;-52
2024/01/15 01:25:39;;;;;;;45.93;19.77;;;-3.60;99.90;;;;;;4144626;28;20751;-55
2024/01/15 01:27:40;;;;;;;48.87;21.63;;;-3.60;99.90;;;;;;4144256;28;20550;-56
2024/01/15 01:29:41;;;;;;;53.70;22.73;;;-3.60;99.90;;;;;;4144652;28;20271;-56
2024/01/15 01:31:44;;;;;;;53.10;22.70;;;-3.70;99.90;;;;;;4144545;28;20994;-55
2024/01/15 01:33:45;;;;;;;52.20;22.63;;;-3.70;99.90;;;;;;4144687;28;20683;-49
2024/01/15 01:35:47;;;;;;;51.53;24.37;;;-3.70;99.90;;;;;;4144635;28;20679;-54
2024/01/15 01:37:48;;;;;;;48.90;24.20;;;-3.70;99.90;;;;;;4144653;28;20779;-54
2024/01/15 01:39:49;;;;;;;45.30;22.90;;;-3.70;99.90;;;;;;4144752;28;20593;-56
2024/01/15 01:41:50;;;;;;;51.70;22.43;;;-3.70;99.90;;;;;;4144188;28;20832;-49
2024/01/15 01:43:51;;;;;;;51.23;23.97;;;-3.70;99.90;;;;;;4144451;28;20283;-57
2024/01/15 01:45:54;;;;;;;49.83;22.07;;;-3.60;99.90;;;;;;4144553;28;20267;-52
2024/01/15 01:47:56;;;;;;;50.27;22.60;;;-3.60;99.90;;;;;;4144650;28;20276;-53
2024/01/15 01:49:57;;;;;;;64.67;24.87;;;-3.50;99.90;;;;;;4144899;28;20341;-54
2024/01/15 01:52:01;;;;;;;62.53;25.67;;;-3.60;99.90;;;;;;4144176;28;20295;-50
2024/01/15 01:54:03;;;;;;;57.53;25.30;;;-3.60;99.90;;;;;;4144248;28;20263;-55
2024/01/15 01:56:04;;;;;;;51.63;22.57;;;-3.60;99.90;;;;;;4144017;28;20325;-55
2024/01/15 01:58:06;;;;;;;56.10;23.90;;;-3.60;99.90;;;;;;4144106;28;20329;-52
2024/01/15 02:00:08;;;;;;;49.10;24.83;;;-3.60;99.90;;;;;;4144355;28;20271;-53
2024/01/15 02:02:09;;;;;;;52.27;22.53;;;-3.60;99.90;;;;;;4144169;28;20338;-56
2024/01/15 02:04:11;;;;;;;47.30;21.00;;;-3.60;99.90;;;;;;4144166;28;20276;-50
2024/01/15 02:06:13;;;;;;;50.07;22.37;;;-3.70;99.90;;;;;;4144346;28;20430;-54
2024/01/15 02:08:14;;;;;;;44.80;19.17;;;-3.70;99.90;;;;;;4144276;28;20276;-55
2024/01/15 02:10:15;;;;;;;34.43;16.37;;;-3.60;99.90;;;;;;4144022;28;20272;-54
2024/01/15 02:12:17;;;;;;;39.90;16.97;;;-3.60;99.90;;;;;;4143680;28;20365;-55
2024/01/15 02:14:18;;;;;;;38.43;17.90;;;-3.60;99.90;;;;;;4144163;28;20275;-53
2024/01/15 02:16:19;;;;;;;39.23;17.13;;;-3.60;99.90;;;;;;4144135;28;20684;-55
2024/01/15 02:18:21;;;;;;;38.73;17.67;;;-3.60;99.90;;;;;;4142672;28;20320;-54
2024/01/15 02:20:22;;;;;;;34.20;15.83;;;-3.60;99.90;;;;;;4143687;28;20279;-52
2024/01/15 02:22:23;;;;;;;37.57;18.20;;;-3.60;99.90;;;;;;4143995;28;20267;-50
2024/01/15 02:24:25;;;;;;;32.43;16.33;;;-3.50;99.90;;;;;;4143824;28;20271;-53
2024/01/15 02:26:26;;;;;;;44.23;18.90;;;-3.40;99.90;;;;;;4143756;28;20271;-53
2024/01/15 02:28:28;;;;;;;39.33;19.20;;;-3.40;99.90;;;;;;4143840;28;20287;-54
2024/01/15 02:30:31;;;;;;;39.13;18.00;;;-3.40;99.90;;;;;;4143992;28;20664;-57
2024/01/15 02:32:32;;;;;;;47.63;20.43;;;-3.30;99.90;;;;;;4143994;28;20784;-57
2024/01/15 02:34:33;;;;;;;44.20;18.40;;;-3.30;99.90;;;;;;4143995;28;20298;-52
2024/01/15 02:36:34;;;;;;;44.30;19.93;;;-3.20;99.90;;;;;;4143035;28;20272;-52
2024/01/15 02:38:36;;;;;;;41.50;18.10;;;-3.20;99.90;;;;;;4143565;28;20264;-51
2024/01/15 02:40:39;;;;;;;42.17;19.03;;;-3.20;99.90;;;;;;4143836;28;20264;-52
2024/01/15 02:42:40;;;;;;;41.50;19.20;;;-3.20;99.90;;;;;;4143537;28;20671;-54
2024/01/15 02:44:41;;;;;;;38.57;17.00;;;-3.20;99.90;;;;;;4143911;28;20272;-55
2024/01/15 02:46:42;;;;;;;35.97;17.60;;;-3.20;99.90;;;;;;4143970;28;20271;-51
2024/01/15 02:48:43;;;;;;;56.53;23.90;;;-3.10;99.90;;;;;;4160485;28;20344;-53
2024/01/15 02:50:45;;;;;;;46.53;21.33;;;-3.10;99.90;;;;;;4160054;28;21108;-53
2024/01/15 02:52:46;;;;;;;39.97;18.20;;;-3.10;99.90;;;;;;4160155;28;20341;-55
2024/01/15 02:54:47;;;;;;;47.10;22.70;;;-3.10;99.90;;;;;;4160141;28;20267;-52
2024/01/15 02:56:48;;;;;;;44.33;19.47;;;-3.10;99.90;;;;;;4159767;28;20325;-54
2024/01/15 02:58:50;;;;;;;31.80;16.17;;;-3.00;99.90;;;;;;4160172;28;20332;-49
2024/01/15 03:00:51;;;;;;;36.30;16.63;;;-3.10;99.90;;;;;;4159913;28;20329;-54
2024/01/15 03:02:52;;;;;;;41.83;20.03;;;-3.00;99.90;;;;;;4159851;28;20259;-52
2024/01/15 03:04:53;;;;;;;46.03;21.33;;;-3.00;99.90;;;;;;4159661;28;20747;-57
2024/01/15 03:06:54;;;;;;;45.67;19.23;;;-2.90;99.90;;;;;;4159983;28;20271;-57
2024/01/15 03:08:55;;;;;;;35.23;16.50;;;-2.90;99.90;;;;;;4159926;28;20271;-51
2024/01/15 03:10:57;;;;;;;32.77;15.40;;;-2.80;99.90;;;;;;4159663;28;20287;-52
2024/01/15 03:12:58;;;;;;;38.23;17.13;;;-2.80;99.90;;;;;;4159921;28;20274;-53
2024/01/15 03:14:59;;;;;;;34.33;16.90;;;-2.80;99.90;;;;;;4154393;28;20317;-52
2024/01/15 03:17:00;;;;;;;32.57;15.43;;;-2.70;99.90;;;;;;4143332;28;20338;-55
2024/01/15 03:19:01;;;;;;;34.33;15.67;;;-2.70;99.90;;;;;;4143740;28;20739;-49
2024/01/15 03:21:04;;;;;;;33.07;15.43;;;-2.60;99.90;;;;;;4143056;28;20679;-50
2024/01/15 03:23:05;;;;;;;43.93;22.27;;;-2.60;99.90;;;;;;4143482;28;20310;-55
2024/01/15 03:25:07;;;;;;;32.77;14.50;;;-2.60;99.90;;;;;;4143277;28;20334;-54
2024/01/15 03:27:08;;;;;;;29.13;14.23;;;-2.60;99.90;;;;;;4142994;28;20272;-51
2024/01/15 03:29:09;;;;;;;27.57;14.20;;;-2.50;99.90;;;;;;4143611;28;20267;-55
2024/01/15 03:31:10;;;;;;;30.53;13.70;;;-2.50;99.90;;;;;;4143113;28;20330;-55
2024/01/15 03:33:11;;;;;;;27.23;13.03;;;-2.50;99.90;;;;;;4143572;28;20321;-54
2024/01/15 03:35:13;;;;;;;27.33;12.37;;;-2.40;99.90;;;;;;4143081;28;20325;-55
2024/01/15 03:37:14;;;;;;;27.97;14.03;;;-2.40;99.90;;;;;;4143238;28;20790;-53
2024/01/15 03:39:15;;;;;;;28.33;13.67;;;-2.40;99.90;;;;;;4143360;28;20271;-57
2024/01/15 03:41:16;;;;;;;25.60;13.43;;;-2.40;99.90;;;;;;4143028;28;20322;-53
2024/01/15 03:43:18;;;;;;;33.63;16.67;;;-2.30;99.90;;;;;;4143187;28;20267;-52
2024/01/15 03:45:19;;;;;;;40.67;19.10;;;-2.30;99.90;;;;;;4143159;28;20294;-51
2024/01/15 03:47:20;;;;;;;34.00;16.87;;;-2.40;99.90;;;;;;4144127;28;20329;-55
2024/01/15 03:49:21;;;;;;;32.73;15.53;;;-2.40;99.90;;;;;;4146171;28;20279;-55
2024/01/15 03:51:23;;;;;;;34.47;16.57;;;-2.40;99.90;;;;;;4146115;28;20361;-48
2024/01/15 03:53:24;;;;;;;28.87;14.47;;;-2.40;99.90;;;;;;4146136;28;20263;-52
2024/01/15 03:55:25;;;;;;;34.07;15.27;;;-2.50;99.90;;;;;;4145929;28;20283;-50
2024/01/15 03:57:27;;;;;;;30.73;14.87;;;-2.50;99.90;;;;;;4145954;28;20643;-55
2024/01/15 03:59:28;;;;;;;32.30;14.87;;;-2.50;99.90;;;;;;4145830;28;20764;-56
2024/01/15 04:01:29;;;;;;;33.63;14.93;;;-2.50;99.90;;;;;;4145738;28;20372;-55
2024/01/15 04:03:30;;;;;;;34.70;15.13;;;-2.50;99.90;;;;;;4145639;28;20271;-51
2024/01/15 04:05:31;;;;;;;33.47;15.10;;;-2.40;99.90;;;;;;4145670;28;20321;-54
2024/01/15 04:07:33;;;;;;;30.07;15.63;;;-2.40;99.90;;;;;;4145402;28;20291;-54
2024/01/15 04:09:34;;;;;;;26.73;13.57;;;-2.40;99.90;;;;;;4145609;28;20338;-55
2024/01/15 04:11:35;;;;;;;30.80;14.07;;;-2.40;99.90;;;;;;4145260;28;20353;-52
2024/01/15 04:13:36;;;;;;;28.90;13.00;;;-2.30;99.90;;;;;;4145984;28;20334;-57
2024/01/15 04:15:37;;;;;;;28.20;13.97;;;-2.30;99.90;;;;;;4145430;28;20361;-52
2024/01/15 04:17:39;;;;;;;27.20;12.70;;;-2.30;99.90;;;;;;4145829;28;20392;-50
2024/01/15 04:19:43;;;;;;;28.07;13.53;;;-2.30;99.90;;;;;;4145887;28;20682;-53
2024/01/15 04:21:45;;;;;;;31.77;13.50;;;-2.30;99.90;;;;;;4145668;28;20280;-53
2024/01/15 04:23:46;;;;;;;28.03;13.10;;;-2.30;99.90;;;;;;4145616;28;20817;-53
2024/01/15 04:25:47;;;;;;;27.17;12.50;;;-2.30;99.90;;;;;;4145225;28;20318;-55
2024/01/15 04:27:48;;;;;;;23.30;12.63;;;-2.30;99.90;;;;;;4144971;28;20288;-49
2024/01/15 04:29:49;;;;;;;32.53;15.37;;;-2.30;99.90;;;;;;4145437;28;20755;-56
2024/01/15 04:31:52;;;;;;;25.10;13.13;;;-2.30;99.90;;;;;;4144997;28;20307;-55
2024/01/15 04:33:54;;;;;;;25.10;11.33;;;-2.40;99.90;;;;;;4145463;28;20663;-53
2024/01/15 04:35:55;;;;;;;22.87;11.53;;;-2.30;99.90;;;;;;4145551;28;20256;-51
2024/01/15 04:37:56;;;;;;;27.23;11.63;;;-2.30;99.90;;;;;;4145298;28;20767;-53
2024/01/15 04:39:57;;;;;;;26.23;11.37;;;-2.30;99.90;;;;;;4144751;28;20279;-56
2024/01/15 04:41:58;;;;;;;24.57;11.83;;;-2.30;99.90;;;;;;4144382;28;20353;-55
2024/01/15 04:44:01;;;;;;;26.20;12.57;;;-2.30;99.90;;;;;;4144898;28;20667;-50
2024/01/15 04:46:03;;;;;;;24.70;12.57;;;-2.30;99.90;;;;;;4145078;28;20679;-54
2024/01/15 04:48:04;;;;;;;30.70;14.23;;;-2.20;99.90;;;;;;4145104;28;20329;-54
2024/01/15 04:50:06;;;;;;;25.70;13.70;;;-2.20;99.90;;;;;;4145427;28;20776;-54
2024/01/15 04:52:10;;;;;;;23.03;12.13;;;-2.20;99.90;;;;;;4145024;28;20342;-49
2024/01/15 04:54:11;;;;;;;24.03;11.70;;;-2.20;99.90;;;;;;4144727;28;20310;-53
2024/01/15 04:56:12;;;;;;;28.13;13.37;;;-2.10;99.90;;;;;;4144800;28;20696;-54
2024/01/15 04:58:13;;;;;;;23.43;12.40;;;-2.10;99.90;;;;;;4144359;28;20613;-57
2024/01/15 05:00:15;;;;;;;29.23;13.47;;;-2.10;99.90;;;;;;4143944;28;20291;-54
2024/01/15 05:02:17;;;;;;;27.50;14.23;;;-2.10;99.90;;;;;;4144826;28;20271;-54
2024/01/15 05:04:18;;;;;;;28.77;12.10;;;-2.10;99.90;;;;;;4144980;28;20771;-55
2024/01/15 05:06:19;;;;;;;27.97;13.53;;;-2.00;99.90;;;;;;4144857;28;20275;-54
2024/01/15 05:08:21;;;;;;;22.87;11.70;;;-2.00;99.90;;;;;;4144562;28;20334;-54
2024/01/15 05:10:22;;;;;;;21.27;11.93;;;-2.00;99.90;;;;;;4144526;28;20279;-54
2024/01/15 05:12:23;;;;;;;26.07;11.93;;;-2.00;99.90;;;;;;4144065;28;20295;-56
2024/01/15 05:14:24;;;;;;;25.77;12.77;;;-2.00;99.90;;;;;;4144109;28;20275;-54
2024/01/15 05:16:25;;;;;;;21.03;10.50;;;-2.00;99.90;;;;;;4144574;28;20275;-56
2024/01/15 05:18:27;;;;;;;27.03;11.50;;;-1.90;99.90;;;;;;4144454;28;20260;-57
2024/01/15 05:20:28;;;;;;;25.93;12.53;;;-1.90;99.90;;;;;;4144946;28;20278;-55
2024/01/15 05:22:29;;;;;;;22.53;10.10;;;-1.90;99.90;;;;;;4143975;28;20263;-56
2024/01/15 05:24:30;;;;;;;23.87;12.30;;;-1.90;99.90;;;;;;4143941;28;20329;-56
2024/01/15 05:26:32;;;;;;;26.23;12.70;;;-1.90;99.90;;;;;;4144453;28;20761;-57
2024/01/15 05:28:33;;;;;;;23.17;12.27;;;-1.80;99.90;;;;;;4143924;28;20923;-57
2024/01/15 05:30:34;;;;;;;32.33;14.60;;;-1.80;99.90;;;;;;4143200;28;20318;-57
2024/01/15 05:32:36;;;;;;;29.50;14.23;;;-1.80;99.90;;;;;;4144108;28;20837;-55
2024/01/15 05:34:37;;;;;;;33.27;13.40;;;-1.80;99.90;;;;;;4144300;28;20271;-56
2024/01/15 05:36:38;;;;;;;23.33;11.57;;;-1.80;99.90;;;;;;4143893;28;20288;-56
2024/01/15 05:38:39;;;;;;;26.03;12.67;;;-1.70;99.90;;;;;;4144359;28;20283;-56
2024/01/15 05:40:41;;;;;;;25.77;14.47;;;-1.80;99.90;;;;;;4141158;28;20325;-58
2024/01/15 05:42:42;;;;;;;25.23;12.10;;;-1.70;99.90;;;;;;4143129;28;20283;-57
2024/01/15 05:44:43;;;;;;;26.17;11.70;;;-1.70;99.90;;;;;;4144074;28;20341;-55
2024/01/15 05:46:44;;;;;;;25.13;11.67;;;-1.70;99.90;;;;;;4144342;28;20663;-54
2024/01/15 05:48:45;;;;;;;24.30;11.77;;;-1.60;99.90;;;;;;4143846;28;20287;-58
2024/01/15 05:50:46;;;;;;;25.63;10.97;;;-1.60;99.90;;;;;;4144575;28;20837;-56
2024/01/15 05:52:48;;;;;;;23.20;11.20;;;-1.60;99.90;;;;;;4144252;28;20279;-57
2024/01/15 05:54:50;;;;;;;26.37;10.90;;;-1.70;99.90;;;;;;4144391;28;20353;-57
2024/01/15 05:56:51;;;;;;;26.20;10.10;;;-1.80;99.90;;;;;;4144124;28;20314;-55
2024/01/15 05:58:52;;;;;;;23.73;11.53;;;-1.80;99.90;;;;;;4143859;28;20322;-55
2024/01/15 06:00:53;;;;;;;32.23;14.27;;;-1.80;99.90;;;;;;4143918;28;20775;-53
2024/01/15 06:02:54;;;;;;;22.53;10.87;;;-1.90;99.90;;;;;;4143547;28;20683;-53
2024/01/15 06:04:56;;;;;;;26.60;13.67;;;-1.90;99.90;;;;;;4143315;28;20264;-55
2024/01/15 06:06:57;;;;;;;22.27;11.80;;;-1.90;99.90;;;;;;4143786;28;20267;-52
2024/01/15 06:09:05;;;;;;;23.40;10.90;;;-1.90;99.90;;;;;;4143767;28;20268;-59
2024/01/15 06:11:07;;;;;;;24.37;12.73;;;-1.80;99.90;;;;;;4143330;28;20279;-57
2024/01/15 06:13:08;;;;;;;24.93;12.77;;;-1.80;99.90;;;;;;4141958;28;20299;-58
2024/01/15 06:15:10;;;;;;;29.30;13.70;;;-1.70;99.90;;;;;;4142371;28;20330;-55
2024/01/15 06:17:11;;;;;;;23.83;12.90;;;-1.70;99.90;;;;;;4142787;28;20324;-56
2024/01/15 06:19:12;;;;;;;24.53;12.40;;;-1.60;99.90;;;;;;4143266;28;20308;-56
2024/01/15 06:21:14;;;;;;;27.87;12.87;;;-1.60;99.90;;;;;;4143879;28;20271;-54
2024/01/15 06:23:15;;;;;;;26.50;11.77;;;-1.50;99.90;;;;;;4143744;28;20290;-56
2024/01/15 06:25:16;;;;;;;22.03;11.33;;;-1.50;99.90;;;;;;4143799;28;20814;-52
2024/01/15 06:27:18;;;;;;;25.70;12.77;;;-1.40;99.90;;;;;;4143567;28;20263;-56
2024/01/15 06:29:19;;;;;;;31.83;13.53;;;-1.40;99.90;;;;;;4143663;28;20255;-57
2024/01/15 06:31:20;;;;;;;22.90;12.10;;;-1.40;99.90;;;;;;4143361;28;20301;-55
2024/01/15 06:33:21;;;;;;;21.60;11.70;;;-1.30;99.90;;;;;;4143592;28;20710;-55
2024/01/15 06:35:22;;;;;;;22.67;12.37;;;-1.30;99.90;;;;;;4143276;28;20318;-52
2024/01/15 06:37:24;;;;;;;23.47;12.40;;;-1.20;99.90;;;;;;4143463;28;20284;-56
2024/01/15 06:39:25;;;;;;;27.43;13.53;;;-1.20;99.90;;;;;;4143581;28;20337;-56
2024/01/15 06:41:26;;;;;;;26.53;14.37;;;-1.10;99.90;;;;;;4143248;28;20325;-55
2024/01/15 06:43:27;;;;;;;28.67;14.30;;;-1.00;99.90;;;;;;4143530;28;20306;-53
2024/01/15 06:45:28;;;;;;;33.30;16.57;;;-0.80;99.90;;;;;;4143294;28;20664;-55
2024/01/15 06:47:30;;;;;;;36.53;19.47;;;-0.60;99.90;;;;;;4143295;28;20799;-56
2024/01/15 06:49:32;;;;;;;43.07;23.50;;;-0.30;99.90;;;;;;4143705;28;20271;-55
2024/01/15 06:51:33;;;;;;;28.70;16.87;;;-0.10;99.90;;;;;;4143494;28;20276;-57
2024/01/15 06:53:34;;;;;;;37.60;20.07;;;0.00;99.90;;;;;;4143230;28;20299;-57
2024/01/15 06:55:35;;;;;;;35.43;18.60;;;0.30;99.90;;;;;;4143597;28;20425;-57
2024/01/15 06:57:36;;;;;;;44.33;21.20;;;0.50;99.90;;;;;;4143473;28;20743;-55
2024/01/15 06:59:37;;;;;;;43.70;21.40;;;0.70;99.90;;;;;;4143517;28;20317;-55
2024/01/15 07:01:39;;;;;;;39.10;20.37;;;1.10;99.90;;;;;;4143575;28;20263;-57
2024/01/15 07:03:40;;;;;;;42.17;19.10;;;1.40;99.90;;;;;;4143137;28;20276;-56
2024/01/15 07:05:41;;;;;;;28.47;14.60;;;1.80;99.90;;;;;;4143621;28;20675;-55
2024/01/15 07:07:42;;;;;;;30.27;14.57;;;2.00;99.90;;;;;;4143408;28;20360;-57
2024/01/15 07:09:44;;;;;;;17.23;10.80;;;2.00;99.90;;;;;;4143580;28;20272;-57
2024/01/15 07:11:49;;;;;;;23.87;11.90;;;1.70;99.90;;;;;;4143073;28;20282;-56
2024/01/15 07:13:50;;;;;;;23.60;12.40;;;1.60;99.90;;;;;;4143401;28;20409;-54
2024/01/15 07:15:51;;;;;;;22.97;10.90;;;1.40;99.90;;;;;;4143263;28;20264;-57
2024/01/15 07:17:52;;;;;;;20.73;10.60;;;1.10;99.90;;;;;;4143295;28;20259;-53
2024/01/15 07:19:53;;;;;;;20.10;10.27;;;0.90;99.90;;;;;;4143824;28;20287;-55
2024/01/15 07:21:55;;;;;;;17.20;10.57;;;0.80;99.90;;;;;;4143519;28;20675;-57
2024/01/15 07:23:56;;;;;;;17.73;10.47;;;0.80;99.90;;;;;;4146541;28;20623;-54
2024/01/15 07:25:57;;;;;;;18.23;9.73;;;0.70;99.90;;;;;;4146689;28;20260;-55
2024/01/15 07:27:58;;;;;;;21.30;11.63;;;0.70;99.90;;;;;;4146075;28;20268;-55
2024/01/15 07:30:00;;;;;;;20.00;11.10;;;0.60;99.90;;;;;;4146491;28;20267;-57
2024/01/15 07:32:01;;;;;;;20.53;12.93;;;0.70;99.90;;;;;;4146268;28;20271;-56
2024/01/15 07:34:02;;;;;;;23.23;12.50;;;0.70;99.90;;;;;;4146272;28;20672;-54
2024/01/15 07:36:04;;;;;;;25.73;13.67;;;0.70;99.90;;;;;;4146205;28;20317;-54
2024/01/15 07:38:05;;;;;;;22.10;12.07;;;0.70;99.90;;;;;;4146255;28;20276;-55
2024/01/15 07:40:08;;;;;;;20.80;11.27;;;0.60;99.90;;;;;;4146232;28;20322;-52
2024/01/15 07:42:09;;;;;;;23.40;11.80;;;0.70;99.90;;;;;;4146166;28;20826;-57
2024/01/15 07:44:10;;;;;;;22.90;12.93;;;0.60;99.90;;;;;;4146133;28;20710;-58
2024/01/15 07:46:12;;;;;;;28.97;13.30;;;0.60;99.90;;;;;;4145973;28;20326;-54
2024/01/15 07:48:14;;;;;;;22.37;12.30;;;0.60;99.90;;;;;;4146288;28;20259;-56
2024/01/15 07:50:15;;;;;;;20.93;10.20;;;0.60;99.90;;;;;;4146376;28;20279;-55
2024/01/15 07:52:16;;;;;;;17.53;9.83;;;0.50;99.90;;;;;;4145895;28;20349;-56
2024/01/15 07:54:17;;;;;;;19.97;9.60;;;0.40;99.90;;;;;;4146104;28;20303;-55
2024/01/15 07:56:18;;;;;;;21.30;11.57;;;0.40;99.90;;;;;;4145953;28;20267;-53
2024/01/15 07:58:20;;;;;;;23.23;11.37;;;0.40;99.90;;;;;;4146256;28;20330;-56
2024/01/15 08:00:21;;;;;;;19.93;10.93;;;0.40;99.90;;;;;;4146064;28;20284;-56
2024/01/15 08:02:22;;;;;;;23.90;13.07;;;0.40;99.90;;;;;;4145692;28;20267;-58
2024/01/15 08:04:23;;;;;;;21.63;11.37;;;0.40;99.90;;;;;;4145454;28;20286;-52
2024/01/15 08:06:24;;;;;;;23.97;12.23;;;0.50;99.90;;;;;;4145513;28;20329;-54
2024/01/15 08:08:26;;;;;;;23.47;12.07;;;0.50;99.90;;;;;;4145841;28;20330;-58
2024/01/15 08:10:27;;;;;;;26.77;12.57;;;0.60;99.90;;;;;;4145683;28;20271;-57
2024/01/15 08:12:28;;;;;;;26.73;14.57;;;0.70;99.90;;;;;;4145415;28;20337;-55
2024/01/15 08:14:29;;;;;;;30.60;13.93;;;0.80;99.90;;;;;;4145595;28;20264;-57
2024/01/15 08:16:30;;;;;;;39.67;21.77;;;1.00;99.90;;;;;;4145621;28;20271;-56
2024/01/15 08:18:32;;;;;;;35.17;18.33;;;1.10;99.90;;;;;;4145780;28;20267;-57
2024/01/15 08:20:33;;;;;;;29.63;16.13;;;1.30;99.90;;;;;;4146140;28;20330;-55
2024/01/15 08:22:34;;;;;;;31.83;15.13;;;1.40;99.90;;;;;;4145625;28;20287;-54
2024/01/15 08:24:35;;;;;;;27.33;13.60;;;1.40;99.90;;;;;;4145582;28;20271;-57
2024/01/15 08:26:36;;;;;;;29.17;13.87;;;1.40;99.90;;;;;;4145133;28;20668;-57
2024/01/15 08:28:38;;;;;;;22.53;12.33;;;1.40;99.90;;;;;;4145329;28;20284;-57
2024/01/15 08:30:39;;;;;;;24.60;11.73;;;1.40;99.90;;;;;;4145405;28;20322;-57
2024/01/15 08:32:43;;;;;;;21.47;11.70;;;1.40;99.90;;;;;;4145329;28;20353;-58
2024/01/15 08:34:46;;;;;;;26.33;13.40;;;1.40;99.90;;;;;;4145165;28;20322;-52
2024/01/15 08:36:47;;;;;;;28.53;14.83;;;1.40;99.90;;;;;;4145298;28;20341;-58
2024/01/15 08:38:49;;;;;;;23.60;12.53;;;1.40;99.90;;;;;;4145324;28;20256;-55
2024/01/15 08:40:51;;;;;;;23.80;12.17;;;1.40;99.90;;;;;;4144995;28;20790;-58
2024/01/15 08:42:52;;;;;;;21.27;11.07;;;1.40;99.90;;;;;;4144966;28;20271;-56
2024/01/15 08:44:53;;;;;;;24.20;11.37;;;1.40;99.90;;;;;;4145083;28;20321;-55
2024/01/15 08:46:54;;;;;;;23.83;12.20;;;1.40;99.90;;;;;;4144815;28;20333;-58
2024/01/15 08:48:55;;;;;;;24.93;12.17;;;1.50;99.90;;;;;;4145276;28;20275;-58
2024/01/15 08:50:56;;;;;;;25.20;13.83;;;1.60;99.90;;;;;;4145657;28;20275;-57
2024/01/15 08:52:58;;;;;;;30.13;13.67;;;1.50;99.90;;;;;;4144673;28;20292;-54
2024/01/15 08:55:00;;;;;;;26.93;13.70;;;1.60;99.90;;;;;;4144854;28;20300;-54
2024/01/15 08:57:02;;;;;;;31.37;13.43;;;1.60;99.90;;;;;;4144822;28;20263;-55
2024/01/15 08:59:03;;;;;;;37.97;19.27;;;1.70;99.90;;;;;;4144730;28;20747;-51
2024/01/15 09:01:05;;;;;;;37.37;17.47;;;1.70;99.90;;;;;;4144768;28;20260;-58
2024/01/15 09:03:08;;;;;;;40.93;18.50;;;1.80;99.90;;;;;;4144572;28;20810;-52
2024/01/15 09:05:09;;;;;;;64.17;26.20;;;1.90;99.90;;;;;;4144586;28;20275;-52
2024/01/15 09:07:10;;;;;;;61.13;28.83;;;2.00;99.90;;;;;;4144638;28;20737;-55
2024/01/15 09:09:11;;;;;;;58.57;30.13;;;2.00;99.90;;;;;;4144537;28;20280;-57
2024/01/15 09:11:12;;;;;;;72.70;31.03;;;2.00;99.90;;;;;;4144499;28;20333;-56
2024/01/15 09:13:14;;;;;;;67.43;30.87;;;2.10;99.90;;;;;;4144838;28;20342;-55
2024/01/15 09:15:15;;;;;;;64.30;28.43;;;2.10;99.90;;;;;;4144407;28;20675;-55
2024/01/15 09:17:16;;;;;;;62.70;30.17;;;2.20;99.90;;;;;;4144515;28;20345;-58
2024/01/15 09:19:17;;;;;;;55.13;28.57;;;2.30;99.90;;;;;;4144728;28;20752;-54
2024/01/15 09:21:18;;;;;;;56.20;27.93;;;2.40;99.90;;;;;;4144753;28;20271;-54
2024/01/15 09:23:19;;;;;;;55.43;26.40;;;2.50;99.90;;;;;;4144522;28;20279;-56
2024/01/15 09:25:21;;;;;;;62.07;27.83;;;2.70;99.90;;;;;;4144398;28;20287;-59
2024/01/15 09:27:22;;;;;;;50.27;24.90;;;2.70;99.90;;;;;;4144080;28;20342;-55
2024/01/15 09:29:23;;;;;;;50.93;24.73;;;2.80;99.90;;;;;;4144391;28;20279;-53
2024/01/15 09:31:24;;;;;;;56.10;26.00;;;2.90;99.90;;;;;;4144219;28;20314;-56
2024/01/15 09:33:25;;;;;;;48.27;23.73;;;2.90;99.90;;;;;;4144261;28;20826;-56
2024/01/15 09:35:27;;;;;;;50.83;24.23;;;2.90;99.90;;;;;;4144381;28;20767;-54
2024/01/15 09:37:28;;;;;;;50.07;24.03;;;3.00;99.90;;;;;;4144149;28;20275;-56
2024/01/15 09:39:30;;;;;;;45.73;23.43;;;3.00;99.90;;;;;;4144202;28;20275;-55
2024/01/15 09:41:31;;;;;;;42.27;21.20;;;3.10;99.90;;;;;;4144199;28;20299;-56
2024/01/15 09:43:33;;;;;;;43.83;21.83;;;3.30;99.90;;;;;;4144372;28;21595;-57
2024/01/15 09:45:34;;;;;;;48.97;21.70;;;3.30;99.90;;;;;;4143831;28;20268;-53
2024/01/15 09:47:37;;;;;;;44.60;21.63;;;3.20;99.90;;;;;;4144249;28;20280;-54
2024/01/15 09:49:40;;;;;;;47.17;21.73;;;3.30;99.90;;;;;;4144249;28;20271;-58
2024/01/15 09:51:42;;;;;;;42.70;21.97;;;3.40;99.90;;;;;;4144119;28;20272;-54
2024/01/15 09:53:45;;;;;;;45.00;22.20;;;3.30;99.90;;;;;;4143719;28;20765;-56
2024/01/15 09:55:46;;;;;;;56.43;23.67;;;3.40;99.90;;;;;;4143927;28;20333;-55
2024/01/15 09:57:49;;;;;;;46.40;20.50;;;3.40;99.90;;;;;;4143500;28;20325;-55
2024/01/15 09:59:53;;;;;;;44.07;20.03;;;3.40;99.90;;;;;;4143807;28;20740;-56
2024/01/15 10:01:56;;;;;;;39.07;18.07;;;3.40;99.90;;;;;;4144056;28;20641;-56
2024/01/15 10:04:01;;;;;;;23.27;13.20;;;3.40;99.90;;;;;;4144035;28;20264;-56
2024/01/15 10:06:03;;;;;;;28.10;12.17;;;3.50;99.90;;;;;;4143885;28;20317;-58
2024/01/15 10:08:04;;;;;;;36.20;13.97;;;3.50;99.90;;;;;;4143964;28;20403;-58
2024/01/15 10:10:07;;;;;;;22.70;11.03;;;3.60;99.90;;;;;;4143689;28;20275;-55
2024/01/15 10:12:10;;;;;;;26.23;11.60;;;3.60;99.90;;;;;;4143734;28;20264;-54
2024/01/15 10:14:14;;;;;;;18.83;10.00;;;3.60;99.90;;;;;;4143894;28;20357;-55
2024/01/15 10:16:15;;;;;;;16.03;9.27;;;3.60;99.90;;;;;;4143805;28;20361;-57
2024/01/15 10:18:17;;;;;;;20.63;9.83;;;3.60;99.90;;;;;;4143543;28;20264;-56